createdAt,value
2018-02-03T00:00:47.023Z,44.90
2018-02-03T00:01:46.983Z,40.90
2018-02-03T00:02:46.950Z,41.80
2018-02-03T00:03:46.899Z,43.10
2018-02-03T00:04:46.860Z,43.30
2018-02-03T00:05:46.822Z,39.40
2018-02-03T00:06:46.789Z,36.00
2018-02-03T00:07:46.742Z,36.30
2018-02-03T00:08:46.700Z,39.70
2018-02-03T00:09:46.681Z,38.80
2018-02-03T00:10:46.622Z,44.10
2018-02-03T00:11:46.578Z,41.50
2018-02-03T00:12:46.539Z,42.70
2018-02-03T00:13:46.498Z,38.80
2018-02-03T00:14:46.463Z,39.90
2018-02-03T00:15:46.419Z,40.40
2018-02-03T00:16:46.382Z,41.50
2018-02-03T00:17:46.342Z,35.70
2018-02-03T00:18:46.301Z,40.20
2018-02-03T00:19:46.259Z,43.00
2018-02-03T00:20:46.224Z,43.60
2018-02-03T00:21:46.179Z,36.50
2018-02-03T00:22:46.142Z,40.10
2018-02-03T00:23:46.096Z,41.50
2018-02-03T00:24:46.091Z,42.70
2018-02-03T00:25:46.049Z,40.80
2018-02-03T00:26:45.982Z,41.30
2018-02-03T00:27:45.938Z,37.60
2018-02-03T00:28:45.904Z,40.00
2018-02-03T00:29:45.911Z,38.90
2018-02-03T00:30:45.815Z,37.20
2018-02-03T00:31:45.819Z,34.50
2018-02-03T00:32:45.744Z,33.70
2018-02-03T00:33:45.712Z,36.30
2018-02-03T00:34:45.656Z,38.60
2018-02-03T00:35:45.615Z,36.30
2018-02-03T00:36:45.602Z,35.30
2018-02-03T00:37:45.535Z,34.90
2018-02-03T00:38:45.494Z,34.80
2018-02-03T00:39:45.457Z,34.70
2018-02-03T00:40:45.421Z,33.70
2018-02-03T00:41:45.375Z,26.50
2018-02-03T00:42:45.332Z,25.40
2018-02-03T00:43:45.294Z,26.70
2018-02-03T00:44:45.251Z,28.20
2018-02-03T00:45:45.214Z,28.60
2018-02-03T00:46:45.173Z,28.60
2018-02-03T00:47:45.152Z,30.30
2018-02-03T00:48:45.090Z,36.50
2018-02-03T00:49:45.062Z,30.40
2018-02-03T00:50:45.013Z,29.50
2018-02-03T00:51:44.968Z,28.30
2018-02-03T00:52:44.934Z,26.00
2018-02-03T00:53:44.886Z,24.00
2018-02-03T00:54:44.848Z,27.00
2018-02-03T00:55:44.865Z,22.10
2018-02-03T00:56:44.772Z,24.40
2018-02-03T00:57:44.773Z,23.30
2018-02-03T00:58:44.684Z,27.00
2018-02-03T00:59:44.655Z,30.60
2018-02-03T01:00:44.607Z,25.20
2018-02-03T01:01:44.567Z,29.00
2018-02-03T01:02:44.528Z,29.60
2018-02-03T01:03:44.487Z,30.00
2018-02-03T01:04:44.447Z,27.10
2018-02-03T01:05:44.409Z,24.80
2018-02-03T01:06:44.378Z,27.80
2018-02-03T01:07:44.348Z,27.30
2018-02-03T01:08:44.306Z,25.70
2018-02-03T01:09:44.245Z,33.60
2018-02-03T01:10:44.203Z,26.50
2018-02-03T01:11:44.162Z,24.80
2018-02-03T01:12:44.124Z,25.20
2018-02-03T01:13:44.112Z,26.40
2018-02-03T01:14:44.045Z,24.90
2018-02-03T01:15:44.011Z,27.50
2018-02-03T01:16:43.998Z,24.20
2018-02-03T01:17:43.931Z,29.30
2018-02-03T01:18:43.882Z,21.20
2018-02-03T01:19:43.849Z,20.40
2018-02-03T01:20:43.831Z,24.50
2018-02-03T01:21:43.783Z,23.90
2018-02-03T01:22:43.719Z,23.60
2018-02-03T01:23:43.682Z,22.80
2018-02-03T01:24:43.649Z,22.50
2018-02-03T01:25:43.596Z,30.20
2018-02-03T01:26:43.561Z,28.20
2018-02-03T01:27:43.521Z,30.30
2018-02-03T01:28:43.482Z,28.60
2018-02-03T01:29:43.438Z,30.50
2018-02-03T01:30:43.397Z,27.30
2018-02-03T01:31:43.374Z,29.50
2018-02-03T01:32:43.314Z,27.70
2018-02-03T01:33:43.275Z,32.00
2018-02-03T01:34:43.235Z,31.00
2018-02-03T01:35:43.199Z,27.00
2018-02-03T01:36:43.155Z,27.50
2018-02-03T01:37:43.111Z,26.90
2018-02-03T01:38:43.073Z,30.70
2018-02-03T01:39:43.041Z,30.40
2018-02-03T01:40:43.022Z,35.40
2018-02-03T01:41:42.964Z,31.20
2018-02-03T01:42:42.914Z,26.10
2018-02-03T01:43:42.872Z,28.20
2018-02-03T01:44:42.834Z,29.00
2018-02-03T01:45:42.800Z,32.60
2018-02-03T01:46:42.750Z,35.20
2018-02-03T01:47:42.721Z,32.20
2018-02-03T01:48:42.670Z,37.70
2018-02-03T01:49:42.632Z,34.90
2018-02-03T01:50:42.589Z,39.60
2018-02-03T01:51:42.545Z,34.80
2018-02-03T01:52:42.507Z,35.00
2018-02-03T01:53:42.470Z,36.50
2018-02-03T01:54:42.425Z,35.50
2018-02-03T01:55:42.381Z,31.70
2018-02-03T01:56:42.345Z,44.20
2018-02-03T01:57:42.303Z,34.80
2018-02-03T01:58:42.277Z,35.70
2018-02-03T01:59:42.222Z,34.50
2018-02-03T02:00:42.182Z,36.60
2018-02-03T02:01:42.145Z,31.80
2018-02-03T02:02:42.103Z,35.30
2018-02-03T02:03:42.079Z,33.60
2018-02-03T02:04:42.020Z,39.30
2018-02-03T02:05:41.979Z,33.70
2018-02-03T02:06:41.940Z,35.10
2018-02-03T02:07:41.910Z,39.70
2018-02-03T02:08:41.858Z,31.80
2018-02-03T02:09:41.818Z,42.60
2018-02-03T02:10:41.775Z,33.70
2018-02-03T02:11:41.772Z,40.60
2018-02-03T02:12:41.694Z,40.90
2018-02-03T02:13:41.665Z,43.20
2018-02-03T02:14:41.620Z,37.90
2018-02-03T02:15:41.588Z,39.80
2018-02-03T02:16:41.533Z,41.50
2018-02-03T02:17:41.490Z,38.30
2018-02-03T02:18:41.451Z,38.30
2018-02-03T02:19:41.409Z,42.70
2018-02-03T02:20:41.383Z,46.10
2018-02-03T02:21:41.329Z,44.00
2018-02-03T02:22:41.289Z,47.20
2018-02-03T02:23:41.246Z,38.80
2018-02-03T02:24:41.206Z,43.70
2018-02-03T02:25:41.166Z,45.50
2018-02-03T02:26:41.127Z,43.10
2018-02-03T02:27:41.085Z,39.30
2018-02-03T02:28:41.045Z,42.70
2018-02-03T02:29:41.005Z,41.40
2018-02-03T02:30:40.968Z,39.50
2018-02-03T02:31:40.931Z,44.60
2018-02-03T02:32:40.882Z,45.30
2018-02-03T02:33:40.851Z,44.80
2018-02-03T02:34:40.805Z,48.90
2018-02-03T02:35:40.762Z,50.10
2018-02-03T02:36:40.722Z,54.90
2018-02-03T02:37:40.726Z,50.70
2018-02-03T02:38:40.649Z,45.90
2018-02-03T02:39:40.625Z,52.50
2018-02-03T02:40:40.562Z,55.90
2018-02-03T02:41:40.521Z,56.90
2018-02-03T02:42:40.477Z,53.20
2018-02-03T02:43:40.435Z,58.50
2018-02-03T02:44:40.416Z,51.30
2018-02-03T02:45:40.359Z,63.60
2018-02-03T02:46:40.319Z,49.90
2018-02-03T02:47:40.277Z,54.00
2018-02-03T02:48:40.238Z,52.00
2018-02-03T02:49:40.201Z,48.50
2018-02-03T02:50:40.160Z,50.20
2018-02-03T02:51:40.136Z,51.70
2018-02-03T02:52:40.075Z,48.10
2018-02-03T02:53:40.047Z,52.90
2018-02-03T02:54:39.992Z,41.80
2018-02-03T02:55:39.958Z,54.10
2018-02-03T02:56:39.912Z,44.40
2018-02-03T02:57:39.886Z,54.70
2018-02-03T02:58:39.841Z,69.00
2018-02-03T02:59:39.793Z,48.20
2018-02-03T03:00:39.753Z,42.90
2018-02-03T03:01:39.717Z,55.70
2018-02-03T03:02:39.691Z,43.60
2018-02-03T03:03:39.629Z,45.40
2018-02-03T03:04:39.598Z,43.40
2018-02-03T03:05:39.549Z,47.00
2018-02-03T03:06:39.515Z,45.50
2018-02-03T03:07:39.469Z,40.00
2018-02-03T03:08:39.423Z,43.00
2018-02-03T03:09:39.386Z,37.70
2018-02-03T03:10:39.347Z,41.40
2018-02-03T03:11:39.310Z,45.80
2018-02-03T03:12:39.265Z,35.40
2018-02-03T03:13:39.230Z,40.30
2018-02-03T03:14:39.182Z,40.60
2018-02-03T03:15:39.141Z,42.40
2018-02-03T03:16:39.101Z,43.10
2018-02-03T03:17:39.078Z,42.50
2018-02-03T03:18:39.033Z,41.80
2018-02-03T03:19:38.981Z,39.10
2018-02-03T03:20:38.937Z,41.00
2018-02-03T03:21:38.902Z,49.70
2018-02-03T03:22:38.870Z,44.60
2018-02-03T03:23:38.832Z,40.60
2018-02-03T03:24:38.777Z,40.30
2018-02-03T03:25:38.749Z,40.90
2018-02-03T03:26:38.696Z,39.10
2018-02-03T03:27:38.656Z,37.30
2018-02-03T03:28:38.619Z,41.90
2018-02-03T03:29:38.572Z,34.90
2018-02-03T03:30:38.538Z,33.90
2018-02-03T03:31:38.544Z,39.90
2018-02-03T03:32:38.452Z,43.00
2018-02-03T03:33:38.414Z,44.00
2018-02-03T03:34:38.373Z,44.10
2018-02-03T03:35:38.335Z,45.40
2018-02-03T03:36:38.302Z,39.90
2018-02-03T03:37:38.251Z,44.00
2018-02-03T03:38:38.221Z,46.50
2018-02-03T03:39:38.173Z,47.70
2018-02-03T03:40:38.171Z,42.30
2018-02-03T03:41:38.088Z,46.50
2018-02-03T03:42:38.047Z,33.50
2018-02-03T03:43:38.023Z,40.70
2018-02-03T03:44:37.965Z,41.30
2018-02-03T03:45:37.963Z,41.30
2018-02-03T03:46:37.890Z,37.50
2018-02-03T03:47:37.843Z,34.30
2018-02-03T03:48:37.803Z,42.60
2018-02-03T03:49:37.779Z,34.00
2018-02-03T03:50:37.723Z,38.70
2018-02-03T03:51:37.681Z,40.00
2018-02-03T03:52:37.665Z,35.60
2018-02-03T03:53:37.596Z,39.00
2018-02-03T03:54:37.558Z,37.40
2018-02-03T03:55:37.553Z,32.70
2018-02-03T03:56:37.475Z,43.70
2018-02-03T03:57:37.436Z,40.90
2018-02-03T03:58:37.414Z,39.40
2018-02-03T03:59:37.357Z,35.40
2018-02-03T04:00:37.313Z,34.70
2018-02-03T04:01:37.276Z,34.40
2018-02-03T04:02:37.237Z,31.30
2018-02-03T04:03:37.195Z,32.00
2018-02-03T04:04:37.187Z,36.90
2018-02-03T04:05:37.114Z,39.00
2018-02-03T04:06:37.074Z,36.40
2018-02-03T04:07:37.032Z,38.70
2018-02-03T04:08:37.002Z,34.40
2018-02-03T04:09:36.990Z,35.90
2018-02-03T04:10:36.915Z,40.60
2018-02-03T04:11:36.876Z,41.10
2018-02-03T04:12:36.836Z,42.40
2018-02-03T04:13:36.829Z,42.90
2018-02-03T04:14:36.754Z,44.20
2018-02-03T04:15:37.797Z,42.50
2018-02-03T04:16:38.297Z,42.80
2018-02-03T04:17:38.298Z,45.90
2018-02-03T04:18:36.640Z,51.10
2018-02-03T04:19:37.297Z,46.80
2018-02-03T04:20:36.513Z,44.70
2018-02-03T04:21:36.485Z,41.70
2018-02-03T04:22:36.424Z,47.40
2018-02-03T04:23:36.398Z,49.80
2018-02-03T04:24:36.350Z,54.00
2018-02-03T04:25:36.308Z,49.30
2018-02-03T04:26:36.265Z,45.30
2018-02-03T04:27:36.215Z,49.50
2018-02-03T04:28:36.180Z,46.50
2018-02-03T04:29:36.136Z,50.50
2018-02-03T04:30:36.093Z,48.60
2018-02-03T04:31:36.053Z,45.30
2018-02-03T04:32:36.052Z,50.30
2018-02-03T04:33:35.973Z,52.60
2018-02-03T04:34:35.949Z,58.60
2018-02-03T04:35:35.891Z,48.20
2018-02-03T04:36:35.850Z,55.20
2018-02-03T04:37:35.813Z,48.90
2018-02-03T04:38:35.767Z,52.00
2018-02-03T04:39:35.729Z,51.10
2018-02-03T04:40:35.688Z,51.50
2018-02-03T04:41:35.647Z,51.50
2018-02-03T04:42:35.607Z,49.90
2018-02-03T04:43:35.584Z,51.80
2018-02-03T04:44:35.524Z,53.40
2018-02-03T04:45:35.488Z,49.30
2018-02-03T04:46:35.455Z,51.00
2018-02-03T04:47:35.434Z,50.10
2018-02-03T04:48:35.371Z,53.10
2018-02-03T04:49:35.337Z,60.60
2018-02-03T04:50:35.287Z,51.90
2018-02-03T04:51:35.244Z,55.40
2018-02-03T04:52:35.210Z,60.80
2018-02-03T04:53:35.173Z,48.30
2018-02-03T04:54:35.134Z,53.00
2018-02-03T04:55:35.095Z,55.30
2018-02-03T04:56:35.035Z,51.20
2018-02-03T04:57:35.004Z,55.00
2018-02-03T04:58:34.959Z,57.70
2018-02-03T04:59:34.915Z,57.90
2018-02-03T05:00:34.928Z,49.80
2018-02-03T05:01:34.854Z,55.00
2018-02-03T05:02:34.798Z,56.40
2018-02-03T05:03:34.759Z,49.10
2018-02-03T05:04:34.728Z,51.00
2018-02-03T05:05:34.679Z,58.90
2018-02-03T05:06:34.649Z,56.00
2018-02-03T05:07:34.639Z,53.20
2018-02-03T05:08:34.552Z,54.80
2018-02-03T05:09:34.554Z,52.90
2018-02-03T05:10:34.472Z,58.20
2018-02-03T05:11:34.429Z,49.00
2018-02-03T05:12:34.404Z,55.80
2018-02-03T05:13:34.348Z,48.90
2018-02-03T05:14:34.333Z,53.60
2018-02-03T05:15:34.310Z,45.10
2018-02-03T05:16:34.226Z,41.30
2018-02-03T05:17:34.216Z,45.40
2018-02-03T05:18:34.146Z,40.80
2018-02-03T05:19:34.106Z,47.30
2018-02-03T05:20:34.063Z,50.20
2018-02-03T05:21:34.043Z,49.50
2018-02-03T05:22:33.992Z,47.00
2018-02-03T05:23:33.970Z,42.20
2018-02-03T05:24:33.948Z,46.60
2018-02-03T05:25:33.865Z,40.40
2018-02-03T05:26:33.829Z,50.00
2018-02-03T05:27:33.778Z,43.40
2018-02-03T05:28:33.741Z,45.80
2018-02-03T05:29:33.716Z,49.40
2018-02-03T05:30:33.688Z,45.20
2018-02-03T05:31:33.613Z,55.60
2018-02-03T05:32:33.574Z,48.40
2018-02-03T05:33:33.549Z,43.50
2018-02-03T05:34:33.494Z,42.10
2018-02-03T05:35:33.472Z,43.70
2018-02-03T05:36:33.411Z,42.60
2018-02-03T05:37:33.373Z,43.00
2018-02-03T05:38:33.349Z,42.40
2018-02-03T05:39:33.291Z,41.50
2018-02-03T05:40:33.247Z,47.20
2018-02-03T05:41:33.221Z,45.50
2018-02-03T05:42:33.164Z,47.60
2018-02-03T05:43:33.122Z,46.50
2018-02-03T05:44:33.102Z,54.90
2018-02-03T05:45:33.044Z,43.40
2018-02-03T05:46:33.001Z,50.40
2018-02-03T05:47:32.960Z,53.90
2018-02-03T05:48:32.920Z,47.40
2018-02-03T05:49:32.904Z,51.50
2018-02-03T05:50:32.858Z,53.30
2018-02-03T05:51:32.798Z,53.90
2018-02-03T05:52:32.758Z,57.00
2018-02-03T05:53:32.755Z,61.00
2018-02-03T05:54:32.742Z,57.10
2018-02-03T05:55:32.661Z,54.40
2018-02-03T05:56:32.592Z,49.90
2018-02-03T05:57:32.550Z,46.70
2018-02-03T05:58:32.513Z,48.60
2018-02-03T05:59:32.472Z,53.00
2018-02-03T06:00:32.429Z,48.00
2018-02-03T06:01:32.392Z,55.70
2018-02-03T06:02:32.366Z,48.80
2018-02-03T06:03:32.308Z,52.40
2018-02-03T06:04:32.266Z,51.30
2018-02-03T06:05:32.227Z,50.70
2018-02-03T06:06:32.183Z,51.70
2018-02-03T06:07:32.146Z,47.50
2018-02-03T06:08:32.105Z,47.90
2018-02-03T06:09:32.061Z,47.00
2018-02-03T06:10:32.032Z,52.20
2018-02-03T06:11:31.982Z,49.80
2018-02-03T06:12:31.942Z,51.50
2018-02-03T06:13:31.901Z,53.20
2018-02-03T06:14:31.861Z,54.30
2018-02-03T06:15:31.820Z,54.40
2018-02-03T06:16:31.777Z,54.80
2018-02-03T06:17:31.739Z,58.50
2018-02-03T06:18:31.697Z,45.10
2018-02-03T06:19:31.657Z,52.90
2018-02-03T06:20:31.617Z,50.60
2018-02-03T06:21:31.577Z,42.80
2018-02-03T06:22:31.535Z,46.60
2018-02-03T06:23:31.498Z,49.10
2018-02-03T06:24:31.480Z,44.50
2018-02-03T06:25:31.412Z,47.80
2018-02-03T06:26:31.374Z,48.20
2018-02-03T06:27:31.331Z,43.40
2018-02-03T06:28:31.290Z,44.70
2018-02-03T06:29:31.250Z,46.80
2018-02-03T06:30:31.212Z,49.80
2018-02-03T06:31:31.168Z,49.40
2018-02-03T06:32:31.127Z,46.30
2018-02-03T06:33:31.088Z,48.50
2018-02-03T06:34:31.048Z,46.90
2018-02-03T06:35:31.005Z,47.00
2018-02-03T06:36:30.965Z,47.80
2018-02-03T06:37:30.942Z,42.90
2018-02-03T06:38:30.883Z,45.00
2018-02-03T06:39:30.842Z,49.00
2018-02-03T06:40:30.799Z,45.70
2018-02-03T06:41:30.761Z,53.30
2018-02-03T06:42:30.720Z,48.50
2018-02-03T06:43:30.680Z,54.10
2018-02-03T06:44:30.638Z,48.50
2018-02-03T06:45:30.599Z,51.30
2018-02-03T06:46:30.556Z,46.50
2018-02-03T06:47:30.516Z,48.40
2018-02-03T06:48:30.474Z,50.70
2018-02-03T06:49:30.433Z,50.00
2018-02-03T06:50:30.393Z,49.90
2018-02-03T06:51:30.351Z,62.20
2018-02-03T06:52:30.309Z,52.10
2018-02-03T06:53:30.278Z,52.20
2018-02-03T06:54:30.231Z,48.00
2018-02-03T06:55:30.187Z,47.50
2018-02-03T06:56:30.174Z,55.50
2018-02-03T06:57:30.109Z,48.10
2018-02-03T06:58:30.067Z,56.20
2018-02-03T06:59:30.026Z,51.20
2018-02-03T07:00:29.987Z,51.00
2018-02-03T07:01:29.946Z,60.60
2018-02-03T07:02:29.908Z,56.20
2018-02-03T07:03:29.862Z,53.70
2018-02-03T07:04:29.820Z,47.50
2018-02-03T07:05:29.780Z,53.50
2018-02-03T07:06:29.741Z,69.20
2018-02-03T07:07:29.698Z,49.40
2018-02-03T07:08:29.659Z,60.30
2018-02-03T07:09:29.616Z,54.00
2018-02-03T07:10:29.577Z,51.30
2018-02-03T07:11:29.533Z,54.90
2018-02-03T07:12:29.494Z,48.80
2018-02-03T07:13:29.454Z,58.10
2018-02-03T07:14:29.414Z,50.50
2018-02-03T07:15:29.371Z,50.80
2018-02-03T07:16:29.332Z,51.70
2018-02-03T07:17:29.289Z,61.80
2018-02-03T07:18:29.262Z,58.40
2018-02-03T07:19:29.207Z,54.60
2018-02-03T07:20:29.167Z,48.60
2018-02-03T07:21:29.128Z,48.90
2018-02-03T07:22:29.085Z,56.90
2018-02-03T07:23:29.046Z,54.30
2018-02-03T07:24:29.007Z,61.10
2018-02-03T07:25:28.965Z,62.00
2018-02-03T07:26:28.925Z,63.20
2018-02-03T07:27:28.881Z,58.90
2018-02-03T07:28:28.839Z,61.30
2018-02-03T07:29:28.827Z,62.60
2018-02-03T07:30:28.762Z,55.30
2018-02-03T07:31:28.717Z,61.90
2018-02-03T07:32:28.680Z,63.50
2018-02-03T07:33:28.638Z,66.70
2018-02-03T07:34:28.599Z,65.30
2018-02-03T07:35:28.557Z,60.70
2018-02-03T07:36:28.519Z,62.40
2018-02-03T07:37:28.475Z,67.30
2018-02-03T07:38:28.434Z,71.20
2018-02-03T07:39:28.393Z,64.00
2018-02-03T07:40:28.353Z,73.20
2018-02-03T07:41:28.312Z,69.90
2018-02-03T07:42:28.272Z,54.90
2018-02-03T07:43:28.234Z,56.00
2018-02-03T07:44:28.192Z,67.10
2018-02-03T07:45:28.151Z,58.30
2018-02-03T07:46:28.122Z,72.40
2018-02-03T07:47:28.067Z,62.80
2018-02-03T07:48:28.027Z,71.80
2018-02-03T07:49:28.041Z,60.80
2018-02-03T07:50:27.947Z,64.30
2018-02-03T07:51:27.906Z,64.20
2018-02-03T07:52:27.863Z,69.40
2018-02-03T07:53:27.826Z,62.40
2018-02-03T07:54:27.785Z,64.30
2018-02-03T07:55:27.743Z,52.90
2018-02-03T07:56:27.700Z,59.40
2018-02-03T07:57:27.664Z,60.30
2018-02-03T07:58:27.623Z,60.30
2018-02-03T07:59:27.585Z,58.60
2018-02-03T08:00:27.540Z,60.00
2018-02-03T08:01:27.500Z,58.90
2018-02-03T08:02:27.461Z,68.50
2018-02-03T08:03:27.418Z,51.70
2018-02-03T08:04:27.378Z,55.20
2018-02-03T08:05:27.339Z,51.70
2018-02-03T08:06:27.298Z,62.10
2018-02-03T08:07:27.261Z,62.80
2018-02-03T08:08:27.218Z,55.10
2018-02-03T08:09:27.177Z,55.60
2018-02-03T08:10:27.139Z,58.60
2018-02-03T08:11:27.101Z,49.80
2018-02-03T08:12:27.060Z,55.30
2018-02-03T08:13:27.021Z,49.60
2018-02-03T08:14:26.984Z,55.10
2018-02-03T08:15:26.936Z,54.70
2018-02-03T08:16:26.895Z,55.00
2018-02-03T08:17:26.858Z,49.10
2018-02-03T08:18:26.817Z,52.00
2018-02-03T08:19:26.777Z,51.60
2018-02-03T08:20:26.735Z,56.30
2018-02-03T08:21:26.694Z,59.70
2018-02-03T08:22:26.655Z,58.30
2018-02-03T08:23:26.632Z,52.20
2018-02-03T08:24:26.579Z,51.70
2018-02-03T08:25:26.535Z,50.80
2018-02-03T08:26:26.495Z,60.80
2018-02-03T08:27:26.454Z,59.00
2018-02-03T08:28:26.417Z,56.40
2018-02-03T08:29:26.373Z,50.10
2018-02-03T08:30:26.335Z,54.10
2018-02-03T08:31:26.294Z,52.90
2018-02-03T08:32:26.254Z,57.80
2018-02-03T08:33:26.209Z,54.90
2018-02-03T08:34:26.175Z,49.50
2018-02-03T08:35:26.133Z,64.50
2018-02-03T08:36:26.103Z,50.40
2018-02-03T08:37:26.054Z,53.80
2018-02-03T08:38:26.012Z,51.50
2018-02-03T08:39:25.974Z,50.40
2018-02-03T08:40:25.933Z,55.50
2018-02-03T08:41:25.895Z,51.30
2018-02-03T08:42:25.857Z,46.40
2018-02-03T08:43:25.813Z,52.10
2018-02-03T08:44:25.772Z,47.40
2018-02-03T08:45:25.734Z,53.40
2018-02-03T08:46:25.694Z,56.40
2018-02-03T08:47:25.652Z,47.90
2018-02-03T08:48:25.617Z,46.90
2018-02-03T08:49:25.577Z,51.50
2018-02-03T08:50:25.534Z,41.70
2018-02-03T08:51:25.498Z,54.70
2018-02-03T08:52:25.456Z,48.70
2018-02-03T08:53:25.418Z,53.20
2018-02-03T08:54:25.382Z,52.80
2018-02-03T08:55:25.338Z,51.40
2018-02-03T08:56:25.300Z,48.10
2018-02-03T08:57:25.262Z,50.90
2018-02-03T08:58:25.224Z,48.40
2018-02-03T08:59:25.187Z,50.50
2018-02-03T09:00:25.145Z,46.90
2018-02-03T09:01:25.106Z,48.80
2018-02-03T09:02:25.069Z,46.50
2018-02-03T09:03:25.033Z,46.30
2018-02-03T09:04:24.991Z,45.50
2018-02-03T09:05:24.955Z,47.90
2018-02-03T09:06:24.916Z,46.90
2018-02-03T09:07:24.879Z,47.10
2018-02-03T09:08:24.843Z,48.80
2018-02-03T09:09:24.804Z,47.10
2018-02-03T09:10:24.766Z,48.30
2018-02-03T09:11:24.728Z,45.70
2018-02-03T09:12:24.691Z,48.10
2018-02-03T09:13:24.653Z,50.00
2018-02-03T09:14:24.615Z,44.70
2018-02-03T09:15:24.580Z,43.50
2018-02-03T09:16:24.543Z,50.30
2018-02-03T09:17:24.504Z,47.00
2018-02-03T09:18:24.469Z,41.40
2018-02-03T09:19:24.434Z,44.90
2018-02-03T09:20:24.395Z,43.10
2018-02-03T09:21:24.361Z,50.10
2018-02-03T09:22:24.329Z,45.70
2018-02-03T09:23:24.290Z,50.80
2018-02-03T09:24:24.258Z,50.90
2018-02-03T09:25:24.225Z,42.80
2018-02-03T09:26:24.237Z,44.00
2018-02-03T09:27:24.161Z,43.10
2018-02-03T09:28:24.133Z,44.20
2018-02-03T09:29:24.098Z,48.40
2018-02-03T09:30:24.062Z,49.10
2018-02-03T09:31:24.030Z,46.70
2018-02-03T09:32:23.999Z,45.70
2018-02-03T09:33:23.967Z,43.20
2018-02-03T09:34:23.936Z,44.70
2018-02-03T09:35:23.936Z,45.30
2018-02-03T09:36:24.014Z,43.40
2018-02-03T09:37:23.863Z,43.60
2018-02-03T09:38:23.808Z,43.80
2018-02-03T09:39:23.773Z,42.60
2018-02-03T09:40:23.742Z,51.80
2018-02-03T09:41:23.707Z,43.90
2018-02-03T09:42:23.675Z,42.40
2018-02-03T09:43:23.642Z,45.50
2018-02-03T09:44:23.609Z,40.30
2018-02-03T09:45:23.578Z,39.30
2018-02-03T09:46:23.545Z,43.40
2018-02-03T09:47:23.514Z,41.80
2018-02-03T09:48:23.486Z,39.00
2018-02-03T09:49:23.450Z,35.70
2018-02-03T09:50:23.433Z,40.20
2018-02-03T09:51:23.388Z,37.40
2018-02-03T09:52:23.356Z,36.50
2018-02-03T09:53:23.326Z,40.00
2018-02-03T09:54:23.297Z,41.00
2018-02-03T09:55:23.266Z,39.10
2018-02-03T09:56:23.284Z,42.70
2018-02-03T09:57:23.199Z,39.00
2018-02-03T09:58:23.171Z,41.80
2018-02-03T09:59:23.168Z,40.80
2018-02-03T10:00:23.107Z,36.50
2018-02-03T10:01:23.075Z,44.60
2018-02-03T10:02:23.044Z,44.60
2018-02-03T10:03:23.010Z,40.20
2018-02-03T10:04:22.974Z,37.20
2018-02-03T10:05:22.944Z,39.10
2018-02-03T10:06:22.913Z,38.40
2018-02-03T10:07:22.878Z,38.80
2018-02-03T10:08:22.845Z,36.40
2018-02-03T10:09:22.823Z,36.20
2018-02-03T10:10:22.777Z,44.20
2018-02-03T10:11:22.742Z,40.30
2018-02-03T10:12:22.707Z,36.90
2018-02-03T10:13:22.673Z,38.20
2018-02-03T10:14:22.696Z,38.90
2018-02-03T10:15:22.601Z,36.40
2018-02-03T10:16:22.571Z,37.10
2018-02-03T10:17:22.534Z,39.80
2018-02-03T10:18:22.497Z,40.30
2018-02-03T10:19:22.463Z,36.20
2018-02-03T10:20:22.427Z,37.60
2018-02-03T10:21:22.394Z,30.80
2018-02-03T10:22:22.360Z,36.30
2018-02-03T10:23:22.323Z,32.50
2018-02-03T10:24:22.290Z,35.60
2018-02-03T10:25:22.258Z,32.90
2018-02-03T10:26:22.218Z,31.70
2018-02-03T10:27:22.183Z,31.70
2018-02-03T10:28:22.177Z,27.70
2018-02-03T10:29:22.158Z,36.90
2018-02-03T10:30:22.084Z,29.20
2018-02-03T10:31:22.047Z,31.80
2018-02-03T10:32:22.012Z,34.70
2018-02-03T10:33:21.978Z,31.70
2018-02-03T10:34:21.941Z,30.30
2018-02-03T10:35:21.906Z,28.30
2018-02-03T10:36:21.874Z,33.70
2018-02-03T10:37:21.837Z,29.00
2018-02-03T10:38:21.804Z,30.60
2018-02-03T10:39:21.768Z,32.10
2018-02-03T10:40:21.736Z,29.90
2018-02-03T10:41:21.700Z,34.10
2018-02-03T10:42:21.669Z,29.10
2018-02-03T10:43:21.630Z,29.30
2018-02-03T10:44:21.597Z,30.20
2018-02-03T10:45:21.580Z,30.70
2018-02-03T10:46:21.529Z,26.90
2018-02-03T10:47:21.496Z,32.80
2018-02-03T10:48:21.458Z,28.70
2018-02-03T10:49:21.426Z,31.90
2018-02-03T10:50:21.393Z,31.00
2018-02-03T10:51:21.356Z,28.40
2018-02-03T10:52:21.325Z,26.80
2018-02-03T10:53:21.294Z,26.70
2018-02-03T10:54:21.259Z,23.60
2018-02-03T10:55:21.223Z,31.00
2018-02-03T10:56:21.191Z,27.90
2018-02-03T10:57:21.157Z,24.60
2018-02-03T10:58:21.125Z,24.10
2018-02-03T10:59:21.097Z,24.10
2018-02-03T11:00:21.060Z,26.10
2018-02-03T11:01:21.034Z,26.20
2018-02-03T11:02:21.003Z,22.80
2018-02-03T11:03:20.970Z,22.20
2018-02-03T11:04:20.942Z,26.00
2018-02-03T11:05:20.912Z,29.50
2018-02-03T11:06:20.885Z,24.90
2018-02-03T11:07:20.855Z,22.10
2018-02-03T11:08:20.827Z,24.80
2018-02-03T11:09:20.800Z,24.40
2018-02-03T11:10:20.776Z,26.10
2018-02-03T11:11:20.746Z,25.10
2018-02-03T11:12:20.721Z,26.30
2018-02-03T11:13:20.695Z,24.70
2018-02-03T11:14:20.665Z,23.00
2018-02-03T11:15:20.641Z,21.70
2018-02-03T11:16:20.611Z,26.40
2018-02-03T11:17:20.581Z,25.40
2018-02-03T11:18:20.552Z,23.20
2018-02-03T11:19:20.523Z,26.60
2018-02-03T11:20:20.496Z,28.80
2018-02-03T11:21:20.469Z,26.50
2018-02-03T11:22:20.438Z,31.90
2018-02-03T11:23:20.405Z,28.10
2018-02-03T11:24:20.375Z,26.20
2018-02-03T11:25:20.342Z,29.20
2018-02-03T11:26:20.366Z,24.50
2018-02-03T11:27:20.283Z,28.40
2018-02-03T11:28:20.247Z,30.60
2018-02-03T11:29:20.220Z,30.00
2018-02-03T11:30:20.184Z,27.00
2018-02-03T11:31:20.149Z,21.80
2018-02-03T11:32:20.118Z,27.00
2018-02-03T11:33:20.084Z,28.40
2018-02-03T11:34:20.049Z,26.10
2018-02-03T11:35:20.016Z,28.10
2018-02-03T11:36:19.982Z,28.00
2018-02-03T11:37:19.952Z,26.70
2018-02-03T11:38:19.914Z,28.80
2018-02-03T11:39:19.883Z,26.80
2018-02-03T11:40:19.844Z,27.70
2018-02-03T11:41:19.808Z,25.90
2018-02-03T11:42:19.777Z,30.00
2018-02-03T11:43:19.739Z,22.50
2018-02-03T11:44:19.705Z,22.30
2018-02-03T11:45:19.668Z,22.70
2018-02-03T11:46:19.634Z,29.50
2018-02-03T11:47:19.597Z,25.50
2018-02-03T11:48:19.562Z,22.70
2018-02-03T11:49:19.524Z,25.70
2018-02-03T11:50:19.490Z,27.00
2018-02-03T11:51:19.456Z,22.50
2018-02-03T11:52:19.418Z,22.00
2018-02-03T11:53:19.380Z,23.00
2018-02-03T11:54:19.343Z,20.10
2018-02-03T11:55:19.305Z,25.00
2018-02-03T11:56:19.269Z,20.70
2018-02-03T11:57:19.232Z,23.90
2018-02-03T11:58:19.195Z,27.70
2018-02-03T11:59:19.159Z,21.30
2018-02-03T12:00:19.150Z,26.40
2018-02-03T12:01:19.079Z,33.00
2018-02-03T12:02:19.057Z,33.60
2018-02-03T12:03:19.012Z,25.50
2018-02-03T12:04:18.973Z,26.50
2018-02-03T12:05:19.593Z,27.60
2018-02-03T12:06:18.916Z,23.70
2018-02-03T12:07:18.861Z,25.20
2018-02-03T12:08:18.824Z,23.80
2018-02-03T12:09:18.786Z,30.40
2018-02-03T12:10:18.748Z,29.60
2018-02-03T12:11:18.710Z,20.10
2018-02-03T12:12:18.670Z,27.60
2018-02-03T12:13:18.634Z,24.20
2018-02-03T12:14:18.601Z,22.30
2018-02-03T12:15:18.560Z,27.30
2018-02-03T12:16:18.523Z,25.90
2018-02-03T12:17:18.481Z,19.80
2018-02-03T12:18:18.444Z,24.30
2018-02-03T12:19:18.406Z,27.90
2018-02-03T12:20:18.371Z,20.80
2018-02-03T12:21:18.335Z,23.90
2018-02-03T12:22:18.293Z,21.80
2018-02-03T12:23:18.256Z,20.90
2018-02-03T12:24:18.216Z,23.80
2018-02-03T12:25:18.186Z,19.00
2018-02-03T12:26:18.142Z,24.80
2018-02-03T12:27:18.105Z,24.80
2018-02-03T12:28:18.068Z,23.30
2018-02-03T12:29:18.027Z,25.70
2018-02-03T12:30:17.991Z,25.50
2018-02-03T12:31:17.951Z,17.50
2018-02-03T12:32:17.914Z,23.50
2018-02-03T12:33:17.873Z,26.90
2018-02-03T12:34:17.835Z,22.90
2018-02-03T12:35:17.800Z,18.30
2018-02-03T12:36:17.760Z,22.70
2018-02-03T12:37:17.723Z,20.50
2018-02-03T12:38:17.684Z,14.40
2018-02-03T12:39:17.647Z,20.80
2018-02-03T12:40:17.608Z,20.20
2018-02-03T12:41:17.571Z,22.50
2018-02-03T12:42:17.533Z,16.70
2018-02-03T12:43:17.492Z,15.10
2018-02-03T12:44:17.458Z,21.80
2018-02-03T12:45:17.420Z,20.40
2018-02-03T12:46:17.383Z,16.10
2018-02-03T12:47:17.345Z,17.10
2018-02-03T12:48:17.305Z,20.00
2018-02-03T12:49:17.272Z,15.50
2018-02-03T12:50:17.261Z,16.40
2018-02-03T12:51:17.194Z,15.90
2018-02-03T12:52:17.156Z,17.50